Time;durP1;ratioP1;P1;durP2;ratioP2;P2;SDS_P1;SDS_P2;PMS_P1;PMS_P2;Temp;Humidity;BMP_temperature;BMP_pressure;BME280_temperature;BME280_humidity;BME280_pressure;Samples;Min_cycle;Max_cycle;Signal;HPM_P1;HPM_P2
2023/03/30 16:31:25;;;;;;;5.50;2.70;;;;;;;13.85;65.89;97382.09;1715387;75;599888;-74
2023/03/30 16:33:56;;;;;;;5.20;3.55;;;;;;;13.85;66.44;97379.34;1707199;75;600111;-72
2023/03/30 16:36:27;;;;;;;6.90;3.80;;;;;;;13.91;65.59;97388.34;1713815;75;600127;-71
2023/03/30 16:39:43;;;;;;;6.70;3.70;;;;;;;13.87;67.60;97390.59;1714320;75;599823;-71
2023/03/30 16:42:13;;;;;;;6.60;4.10;;;;;;;13.99;67.92;97396.84;1707366;75;599778;-73
2023/03/30 16:44:43;;;;;;;4.60;3.20;;;;;;;14.22;67.46;97386.50;1714503;75;600217;-71
2023/03/30 16:47:14;;;;;;;4.40;2.50;;;;;;;14.27;68.09;97385.72;1706570;75;598797;-72
2023/03/30 16:49:45;;;;;;;9.50;5.45;;;;;;;14.11;66.08;97390.03;1714514;75;599195;-71
2023/03/30 16:52:15;;;;;;;14.40;7.80;;;;;;;14.07;68.04;97395.06;1707348;75;599131;-71
2023/03/30 16:54:47;;;;;;;9.15;6.60;;;;;;;13.96;69.18;97395.84;1714339;75;599493;-73
2023/03/30 16:57:18;;;;;;;9.30;6.80;;;;;;;13.95;68.90;97397.09;1706350;75;600205;-71
2023/03/30 16:59:48;;;;;;;10.80;7.10;;;;;;;13.84;69.73;97405.38;1714464;75;599103;-73
2023/03/30 17:02:19;;;;;;;15.50;9.00;;;;;;;13.60;72.99;97409.41;1706995;75;599108;-71
2023/03/30 17:04:49;;;;;;;11.20;6.70;;;;;;;13.90;71.42;97406.09;1714640;75;600212;-72
2023/03/30 17:07:19;;;;;;;7.10;5.10;;;;;;;13.95;69.56;97413.63;1706622;75;599073;-73
2023/03/30 17:09:51;;;;;;;5.65;4.05;;;;;;;14.03;68.05;97417.34;1714383;75;598233;-72
2023/03/30 17:12:22;;;;;;;5.00;2.90;;;;;;;14.04;67.81;97426.34;1707249;75;598760;-71
2023/03/30 17:14:52;;;;;;;3.20;2.40;;;;;;;14.05;66.13;97427.84;1714550;75;599120;-72
2023/03/30 17:17:22;;;;;;;9.70;5.65;;;;;;;13.80;69.43;97426.88;1706875;75;599712;-71
2023/03/30 17:19:52;;;;;;;7.40;4.70;;;;;;;13.73;68.27;97425.41;1714113;75;599899;-72
2023/03/30 17:22:22;;;;;;;9.40;4.65;;;;;;;13.68;69.76;97426.16;1706926;75;599097;-73
2023/03/30 17:24:55;;;;;;;8.00;4.00;;;;;;;13.69;71.70;97413.19;1713901;75;599143;-72
2023/03/30 17:27:27;;;;;;;8.70;5.40;;;;;;;13.58;71.15;97416.69;1706549;75;600265;-72
2023/03/30 17:29:57;;;;;;;7.90;4.60;;;;;;;13.64;70.81;97420.94;1714159;75;599180;-72
2023/03/30 17:32:27;;;;;;;9.80;4.60;;;;;;;13.54;71.90;97416.94;1707489;75;599112;-71
2023/03/30 17:34:57;;;;;;;8.35;4.50;;;;;;;13.63;72.15;97424.16;1713879;75;599186;-72
2023/03/30 17:37:27;;;;;;;8.80;5.00;;;;;;;13.58;72.46;97422.19;1707330;75;598874;-73
2023/03/30 17:40:00;;;;;;;9.55;5.00;;;;;;;13.52;73.44;97413.94;1714546;75;599170;-72
2023/03/30 17:42:30;;;;;;;12.40;6.45;;;;;;;13.62;74.16;97419.94;1707817;75;599924;-74
2023/03/30 17:45:00;;;;;;;10.60;4.00;;;;;;;13.50;76.68;97421.94;1714185;75;602280;-72
2023/03/30 17:47:30;;;;;;;11.30;5.30;;;;;;;13.55;78.08;97410.19;1706881;75;601146;-72
2023/03/30 17:50:01;;;;;;;11.20;4.70;;;;;;;13.53;78.62;97425.69;1713817;75;600113;-72
2023/03/30 17:52:31;;;;;;;12.70;4.60;;;;;;;13.34;81.02;97412.44;1705218;75;652310;-74
2023/03/30 17:55:04;;;;;;;6.10;2.20;;;;;;;13.37;80.77;97419.69;1712361;75;602192;-71
2023/03/30 17:57:34;;;;;;;5.55;2.10;;;;;;;13.25;82.00;97422.91;1705180;75;655420;-71
2023/03/30 18:00:09;;;;;;;3.75;2.15;;;;;;;13.48;82.06;97429.19;1713040;75;601218;-72
2023/03/30 18:02:39;;;;;;;4.65;2.50;;;;;;;13.39;83.54;97417.19;1705636;75;654471;-72
2023/03/30 18:05:11;;;;;;;4.70;2.45;;;;;;;13.29;86.60;97426.94;1712867;75;600089;-72
2023/03/30 18:07:41;;;;;;;3.90;2.40;;;;;;;13.28;90.59;97427.44;1705260;75;652219;-72
2023/03/30 18:10:29;;;;;;;4.85;2.20;;;;;;;12.84;98.74;97437.09;1713096;75;598766;-72
2023/03/30 18:12:59;;;;;;;5.30;2.20;;;;;;;12.58;100.00;97449.75;1705259;75;655422;-71
2023/03/30 18:15:30;;;;;;;5.15;2.50;;;;;;;12.56;100.00;97452.25;1712722;75;602577;-71
2023/03/30 18:18:02;;;;;;;5.10;2.35;;;;;;;12.35;100.00;97457.16;1704368;75;654495;-72
2023/03/30 18:20:35;;;;;;;3.00;1.90;;;;;;;12.44;100.00;97472.69;1712756;75;602217;-71
2023/03/30 18:23:06;;;;;;;5.15;2.25;;;;;;;12.23;100.00;97477.56;1705360;75;656060;-71
2023/03/30 18:25:39;;;;;;;6.35;2.65;;;;;;;12.18;100.00;97489.25;1712480;75;601895;-71
2023/03/30 18:28:18;;;;;;;4.65;2.40;;;;;;;12.31;100.00;97486.84;1705271;75;654413;-71
2023/03/30 18:30:49;;;;;;;4.20;2.40;;;;;;;12.29;100.00;97492.06;1705479;75;601917;-72
2023/03/30 18:33:20;;;;;;;6.20;2.70;;;;;;;12.17;100.00;97501.50;1712865;75;602241;-72
2023/03/30 18:35:52;;;;;;;9.00;2.90;;;;;;;12.18;100.00;97504.97;1705175;75;601943;-74
2023/03/30 18:38:24;;;;;;;4.50;2.45;;;;;;;12.13;100.00;97518.16;1713042;75;602193;-73
2023/03/30 18:40:57;;;;;;;3.90;2.30;;;;;;;12.16;100.00;97519.19;1705480;75;602228;-71
2023/03/30 18:43:28;;;;;;;4.60;2.60;;;;;;;12.17;100.00;97526.19;1712819;75;601174;-71
2023/03/30 18:45:59;;;;;;;5.30;2.60;;;;;;;12.13;100.00;97511.94;1704964;75;602101;-72
2023/03/30 18:48:29;;;;;;;8.50;2.80;;;;;;;12.10;100.00;97513.66;1713149;75;599123;-71
2023/03/30 18:51:00;;;;;;;5.95;2.95;;;;;;;12.15;100.00;97520.44;1705725;75;602023;-72
2023/03/30 18:53:31;;;;;;;4.50;2.80;;;;;;;12.13;100.00;97531.88;1713173;75;601171;-72
2023/03/30 18:56:04;;;;;;;3.30;2.30;;;;;;;12.34;100.00;97526.28;1705307;75;601034;-72
2023/03/30 18:58:40;;;;;;;4.60;2.10;;;;;;;12.38;100.00;97529.53;1712667;75;599120;-71
2023/03/30 19:01:11;;;;;;;5.00;2.25;;;;;;;12.27;100.00;97527.50;1704894;75;652328;-73
2023/03/30 19:03:43;;;;;;;4.60;2.30;;;;;;;12.19;100.00;97525.69;1713267;75;599079;-72
2023/03/30 19:06:18;;;;;;;4.55;2.90;;;;;;;12.15;100.00;97525.94;1704871;75;652450;-71
2023/03/30 19:08:48;;;;;;;5.75;2.90;;;;;;;12.22;100.00;97532.94;1712778;75;599083;-72
2023/03/30 19:11:24;;;;;;;5.45;2.35;;;;;;;12.36;100.00;97518.28;1705547;75;652305;-72
2023/03/30 19:13:55;;;;;;;2.60;1.40;;;;;;;12.36;100.00;97510.06;1706160;75;599169;-71
2023/03/30 19:16:25;;;;;;;1.90;1.30;;;;;;;12.28;100.00;97498.03;1712493;75;599107;-73
2023/03/30 19:18:55;;;;;;;1.90;1.10;;;;;;;12.25;100.00;97486.06;1705593;75;599185;-72
2023/03/30 19:21:26;;;;;;;2.20;1.40;;;;;;;12.22;100.00;97489.78;1712956;75;600134;-72
2023/03/30 19:23:56;;;;;;;1.70;1.30;;;;;;;12.34;100.00;97504.34;1705817;75;600210;-72
2023/03/30 19:26:28;;;;;;;1.10;0.90;;;;;;;12.46;100.00;97514.13;1712461;75;599136;-70
2023/03/30 19:28:59;;;;;;;1.40;1.10;;;;;;;12.46;100.00;97524.31;1706082;75;599301;-71
2023/03/30 19:31:29;;;;;;;2.00;1.20;;;;;;;12.37;100.00;97517.06;1712808;75;599780;-72
2023/03/30 19:33:59;;;;;;;2.90;1.60;;;;;;;12.25;100.00;97501.78;1706048;75;599071;-71
2023/03/30 19:36:29;;;;;;;2.00;1.60;;;;;;;12.22;100.00;97495.28;1712416;75;599104;-73
2023/03/30 19:38:59;;;;;;;2.30;1.70;;;;;;;12.23;100.00;97491.28;1705579;75;598922;-71
2023/03/30 19:41:32;;;;;;;1.90;1.30;;;;;;;12.32;100.00;97485.59;1712988;75;599105;-72
2023/03/30 19:44:02;;;;;;;1.40;1.00;;;;;;;12.22;100.00;97484.31;1705423;75;599100;-71
2023/03/30 19:46:33;;;;;;;2.10;1.75;;;;;;;11.92;100.00;97495.56;1712336;75;599104;-71
2023/03/30 19:49:03;;;;;;;4.30;2.40;;;;;;;11.83;100.00;97484.75;1704164;75;599557;-75
2023/03/30 19:51:35;;;;;;;3.40;1.80;;;;;;;11.98;100.00;97503.88;1712752;75;599839;-73
2023/03/30 19:54:06;;;;;;;5.30;2.70;;;;;;;11.77;100.00;97499.69;1705746;75;599124;-73
2023/03/30 19:56:39;;;;;;;5.70;2.80;;;;;;;11.76;100.00;97504.44;1712492;75;599264;-72
2023/03/30 19:59:10;;;;;;;4.20;2.60;;;;;;;11.68;100.00;97506.84;1705785;75;600163;-72
2023/03/30 20:01:42;;;;;;;2.50;1.90;;;;;;;11.83;100.00;97514.19;1712577;75;599212;-72
2023/03/30 20:04:12;;;;;;;4.55;3.50;;;;;;;11.69;100.00;97513.84;1705304;75;599097;-72
2023/03/30 20:06:42;;;;;;;4.40;2.95;;;;;;;11.90;100.00;97528.22;1712538;75;598833;-74
2023/03/30 20:09:12;;;;;;;3.80;2.40;;;;;;;11.86;100.00;97533.19;1705859;75;599039;-73
2023/03/30 20:11:47;;;;;;;3.00;2.20;;;;;;;11.83;100.00;97528.66;1711948;75;599239;-73
2023/03/30 20:14:19;;;;;;;2.00;1.75;;;;;;;11.90;100.00;97538.44;1705128;75;599860;-70
2023/03/30 20:16:49;;;;;;;2.40;1.50;;;;;;;11.87;100.00;97545.66;1711107;75;600002;-74
2023/03/30 20:19:21;;;;;;;2.25;1.30;;;;;;;11.92;100.00;97536.72;1704494;75;653463;-72
2023/03/30 20:21:51;;;;;;;2.10;1.40;;;;;;;11.82;100.00;97531.88;1713175;75;599093;-74
2023/03/30 20:24:22;;;;;;;1.70;1.45;;;;;;;11.56;100.00;97540.16;1704835;75;654568;-73
2023/03/30 20:26:57;;;;;;;2.10;1.20;;;;;;;11.67;100.00;97551.97;1712119;75;599122;-73
2023/03/30 20:29:27;;;;;;;2.20;1.80;;;;;;;11.71;100.00;97549.75;1704924;75;651042;-73
2023/03/30 20:31:57;;;;;;;2.00;1.50;;;;;;;11.70;100.00;97544.75;1712600;75;599125;-71
2023/03/30 20:34:29;;;;;;;1.85;1.10;;;;;;;11.70;100.00;97547.50;1705025;75;652453;-71
2023/03/30 20:36:59;;;;;;;2.40;1.40;;;;;;;11.69;100.00;97541.28;1711718;75;599133;-72
2023/03/30 20:39:30;;;;;;;2.55;1.70;;;;;;;11.33;100.00;97534.47;1704999;75;652431;-71
2023/03/30 20:42:07;;;;;;;4.20;2.10;;;;;;;11.50;100.00;97537.38;1712947;75;600140;-71
2023/03/30 20:44:40;;;;;;;2.25;1.65;;;;;;;11.51;100.00;97545.09;1705207;75;652351;-72
2023/03/30 20:47:10;;;;;;;1.10;1.00;;;;;;;11.42;100.00;97534.28;1711913;75;600173;-72
2023/03/30 20:49:42;;;;;;;1.70;1.20;;;;;;;11.44;100.00;97526.34;1705100;75;653420;-73
2023/03/30 20:52:12;;;;;;;1.20;1.10;;;;;;;11.37;100.00;97517.78;1712683;75;599126;-72
2023/03/30 20:54:43;;;;;;;1.95;1.20;;;;;;;11.37;100.00;97523.28;1705243;75;652282;-71
2023/03/30 20:57:16;;;;;;;1.40;1.00;;;;;;;11.36;100.00;97522.53;1712069;75;599131;-72
2023/03/30 20:59:46;;;;;;;1.60;1.10;;;;;;;11.23;100.00;97522.91;1705329;75;653078;-72
2023/03/30 21:02:17;;;;;;;3.40;2.00;;;;;;;11.12;100.00;97527.53;1712728;75;599129;-71
2023/03/30 21:04:48;;;;;;;2.80;1.70;;;;;;;11.10;100.00;97533.47;1705085;75;652369;-72
2023/03/30 21:07:18;;;;;;;2.00;1.80;;;;;;;11.10;100.00;97536.22;1711928;75;599183;-70
2023/03/30 21:09:48;;;;;;;3.20;1.55;;;;;;;11.12;100.00;97528.28;1704919;75;653516;-71
2023/03/30 21:15:03;;;;;;;21.80;10.35;;;;;;;10.57;100.00;97537.34;1703723;75;622869;-72
2023/03/30 21:17:33;;;;;;;32.00;14.35;;;;;;;10.56;100.00;97525.66;1712615;75;599141;-72
2023/03/30 21:20:06;;;;;;;17.95;9.75;;;;;;;10.76;100.00;97519.41;1704699;75;649802;-71
2023/03/30 21:22:37;;;;;;;14.70;7.85;;;;;;;10.59;100.00;97516.47;1712833;75;599060;-73
2023/03/30 21:25:08;;;;;;;8.90;5.15;;;;;;;10.73;100.00;97525.09;1704994;75;652346;-73
2023/03/30 21:27:41;;;;;;;7.60;4.55;;;;;;;10.76;100.00;97526.88;1712907;75;599175;-72
2023/03/30 21:30:13;;;;;;;5.45;3.00;;;;;;;10.78;100.00;97527.91;1705221;75;654158;-73
2023/03/30 21:32:43;;;;;;;4.60;2.80;;;;;;;10.68;100.00;97512.84;1713256;75;599070;-71
2023/03/30 21:35:14;;;;;;;5.10;3.25;;;;;;;10.69;100.00;97519.06;1705649;75;633222;-71
2023/03/30 21:37:44;;;;;;;3.70;2.10;;;;;;;10.68;100.00;97517.56;1713059;75;599104;-71
2023/03/30 21:40:15;;;;;;;3.50;2.10;;;;;;;10.62;100.00;97526.44;1705287;75;653561;-73
2023/03/30 21:42:48;;;;;;;2.50;1.80;;;;;;;10.66;100.00;97524.28;1712121;75;599096;-73
2023/03/30 21:45:19;;;;;;;2.60;1.80;;;;;;;10.62;100.00;97518.25;1704991;75;652280;-72
2023/03/30 21:47:49;;;;;;;3.90;2.50;;;;;;;10.34;100.00;97530.81;1712805;75;599174;-71
2023/03/30 21:53:50;;;;;;;6.65;4.00;;;;;;;10.12;100.00;97521.03;1705644;75;623946;-72
2023/03/30 21:56:21;;;;;;;4.75;3.30;;;;;;;10.12;100.00;97528.50;1712684;75;599297;-71
2023/03/30 21:58:54;;;;;;;4.55;2.70;;;;;;;10.15;100.00;97511.91;1705382;75;650183;-71
2023/03/30 22:01:25;;;;;;;3.20;2.30;;;;;;;10.22;100.00;97513.47;1712930;75;599578;-74
2023/03/30 22:03:56;;;;;;;3.70;2.50;;;;;;;10.06;100.00;97514.75;1705690;75;652290;-73
2023/03/30 22:06:26;;;;;;;2.90;1.90;;;;;;;9.99;100.00;97520.59;1712708;75;599109;-71
2023/03/30 22:08:56;;;;;;;3.35;1.90;;;;;;;9.97;100.00;97512.88;1705137;75;652283;-72
2023/03/30 22:11:28;;;;;;;2.75;1.70;;;;;;;9.88;100.00;97515.72;1712591;75;599444;-73
2023/03/30 22:14:01;;;;;;;2.75;1.80;;;;;;;9.92;100.00;97512.78;1705333;75;650780;-75
2023/03/30 22:16:33;;;;;;;2.20;1.50;;;;;;;9.84;100.00;97512.44;1712735;75;599123;-71
2023/03/30 22:19:04;;;;;;;4.00;2.35;;;;;;;9.68;100.00;97510.19;1705355;75;652478;-72
2023/03/30 22:21:36;;;;;;;4.80;2.80;;;;;;;9.47;100.00;97510.09;1713481;75;599088;-71
2023/03/30 22:24:08;;;;;;;3.15;2.30;;;;;;;9.64;100.00;97515.09;1705735;75;650181;-72
2023/03/30 22:26:39;;;;;;;2.60;1.50;;;;;;;9.72;100.00;97516.22;1712544;75;599078;-71
2023/03/30 22:29:12;;;;;;;1.95;1.60;;;;;;;9.66;100.00;97518.09;1705131;75;652426;-71
2023/03/30 22:31:43;;;;;;;5.85;3.60;;;;;;;9.48;100.00;97527.25;1712917;75;599447;-72
2023/03/30 22:34:13;;;;;;;3.65;2.30;;;;;;;9.57;100.00;97521.69;1705659;75;652526;-72
2023/03/30 22:36:43;;;;;;;3.60;1.90;;;;;;;9.61;100.00;97514.06;1712716;75;599396;-71
2023/03/30 22:39:14;;;;;;;6.20;3.85;;;;;;;9.15;100.00;97518.00;1704978;75;652419;-71
2023/03/30 22:41:44;;;;;;;6.10;4.10;;;;;;;9.16;100.00;97526.94;1712476;75;599289;-70
2023/03/30 22:44:18;;;;;;;5.00;3.15;;;;;;;9.23;100.00;97529.31;1705618;75;652259;-72
2023/03/30 22:46:48;;;;;;;3.75;2.20;;;;;;;9.31;100.00;97522.25;1712894;75;599099;-73
2023/03/30 22:49:18;;;;;;;4.30;2.15;;;;;;;9.24;100.00;97513.69;1704974;75;652377;-71
2023/03/30 22:51:49;;;;;;;2.60;1.90;;;;;;;9.36;100.00;97516.13;1712992;75;599251;-72
2023/03/30 22:54:20;;;;;;;2.00;1.40;;;;;;;9.29;100.00;97519.25;1705759;75;652181;-71
2023/03/30 22:56:50;;;;;;;2.40;1.50;;;;;;;9.32;100.00;97514.81;1712631;75;599704;-72
2023/03/30 22:59:23;;;;;;;1.75;1.30;;;;;;;9.38;100.00;97507.47;1705452;75;650226;-73
2023/03/30 23:01:53;;;;;;;1.80;1.20;;;;;;;9.33;100.00;97497.97;1713011;75;599123;-73
2023/03/30 23:04:23;;;;;;;1.95;1.10;;;;;;;9.30;100.00;97500.88;1705921;75;652350;-73
2023/03/30 23:06:53;;;;;;;1.95;1.20;;;;;;;9.33;100.00;97505.38;1713047;75;599535;-72
2023/03/30 23:09:27;;;;;;;1.50;1.10;;;;;;;9.24;100.00;97514.44;1705363;75;652320;-71
2023/03/30 23:11:58;;;;;;;1.30;1.00;;;;;;;9.10;100.00;97513.19;1713224;75;599132;-71
2023/03/30 23:14:31;;;;;;;2.75;1.50;;;;;;;8.95;100.00;97510.44;1705777;75;652332;-72
2023/03/30 23:17:01;;;;;;;2.00;1.40;;;;;;;9.09;100.00;97503.50;1713116;75;599108;-72
2023/03/30 23:19:35;;;;;;;1.80;1.30;;;;;;;9.06;100.00;97492.75;1705772;75;652407;-70
2023/03/30 23:22:05;;;;;;;1.60;1.35;;;;;;;9.02;100.00;97500.38;1713412;75;599136;-71
2023/03/30 23:24:35;;;;;;;2.05;1.25;;;;;;;9.03;100.00;97504.63;1705707;75;652356;-71
2023/03/30 23:27:05;;;;;;;1.70;1.20;;;;;;;8.94;100.00;97498.00;1712862;75;599271;-75
2023/03/30 23:29:38;;;;;;;2.05;1.25;;;;;;;8.80;100.00;97493.25;1705359;75;652414;-73
2023/03/30 23:32:09;;;;;;;1.70;1.00;;;;;;;8.87;100.00;97494.88;1713294;75;599160;-73
2023/03/30 23:34:42;;;;;;;2.10;1.30;;;;;;;8.82;100.00;97496.28;1705898;75;653407;-74
2023/03/30 23:37:13;;;;;;;1.55;1.00;;;;;;;8.74;100.00;97482.25;1712669;75;599080;-71
2023/03/30 23:39:44;;;;;;;1.50;1.15;;;;;;;8.69;100.00;97484.88;1705415;75;652696;-72
2023/03/30 23:42:14;;;;;;;1.40;1.30;;;;;;;8.63;100.00;97487.47;1713359;75;599145;-72
2023/03/30 23:44:47;;;;;;;1.35;1.10;;;;;;;8.65;100.00;97492.47;1705574;75;653417;-72
2023/03/30 23:47:18;;;;;;;1.60;1.00;;;;;;;8.57;100.00;97491.34;1712782;75;599129;-72
2023/03/30 23:49:48;;;;;;;1.55;1.20;;;;;;;8.44;100.00;97494.28;1705281;75;652367;-72
2023/03/30 23:52:18;;;;;;;1.60;1.10;;;;;;;8.48;100.00;97483.97;1712822;75;599555;-72
2023/03/30 23:54:51;;;;;;;1.30;1.00;;;;;;;8.44;100.00;97492.34;1705493;75;651865;-73
2023/03/30 23:57:21;;;;;;;1.20;1.10;;;;;;;8.36;100.00;97482.94;1712650;75;599756;-71
2023/03/30 23:59:54;;;;;;;1.75;1.10;;;;;;;8.22;100.00;97464.56;1705076;75;652402;-72
